sensor_id;sensor_type;location;lat;lon;timestamp;P1;durP1;ratioP1;P2;durP2;ratioP2
1328;SDS011;658;48.820;9.354;2023-02-11T00:01:17;5.50;;;5.10;;
1328;SDS011;658;48.820;9.354;2023-02-11T00:05:18;4.90;;;4.50;;
1328;SDS011;658;48.820;9.354;2023-02-11T00:09:19;5.27;;;4.87;;
1328;SDS011;658;48.820;9.354;2023-02-11T00:13:20;5.40;;;5.00;;
1328;SDS011;658;48.820;9.354;2023-02-11T00:17:21;5.73;;;5.33;;
1328;SDS011;658;48.820;9.354;2023-02-11T00:21:22;6.00;;;5.60;;
1328;SDS011;658;48.820;9.354;2023-02-11T00:25:24;5.43;;;5.03;;
1328;SDS011;658;48.820;9.354;2023-02-11T00:29:25;5.63;;;5.23;;
1328;SDS011;658;48.820;9.354;2023-02-11T00:33:25;5.50;;;5.10;;
1328;SDS011;658;48.820;9.354;2023-02-11T00:37:26;6.23;;;5.80;;
1328;SDS011;658;48.820;9.354;2023-02-11T00:41:27;5.33;;;4.93;;
1328;SDS011;658;48.820;9.354;2023-02-11T00:45:28;5.47;;;5.00;;
1328;SDS011;658;48.820;9.354;2023-02-11T00:49:29;5.60;;;5.20;;
1328;SDS011;658;48.820;9.354;2023-02-11T00:53:30;5.53;;;5.13;;
1328;SDS011;658;48.820;9.354;2023-02-11T00:57:32;5.50;;;5.10;;
1328;SDS011;658;48.820;9.354;2023-02-11T01:01:32;5.30;;;4.90;;
1328;SDS011;658;48.820;9.354;2023-02-11T01:05:33;5.50;;;5.17;;
1328;SDS011;658;48.820;9.354;2023-02-11T01:09:36;5.47;;;5.07;;
1328;SDS011;658;48.820;9.354;2023-02-11T01:13:38;5.90;;;5.50;;
1328;SDS011;658;48.820;9.354;2023-02-11T01:17:38;5.33;;;5.00;;
1328;SDS011;658;48.820;9.354;2023-02-11T01:21:39;5.37;;;5.00;;
1328;SDS011;658;48.820;9.354;2023-02-11T01:25:39;6.07;;;5.67;;
1328;SDS011;658;48.820;9.354;2023-02-11T01:29:40;6.10;;;5.60;;
1328;SDS011;658;48.820;9.354;2023-02-11T01:33:41;5.73;;;5.30;;
1328;SDS011;658;48.820;9.354;2023-02-11T01:37:41;5.17;;;4.77;;
1328;SDS011;658;48.820;9.354;2023-02-11T01:41:42;6.00;;;5.50;;
1328;SDS011;658;48.820;9.354;2023-02-11T01:49:47;5.80;;;5.30;;
1328;SDS011;658;48.820;9.354;2023-02-11T01:53:51;5.27;;;4.97;;
1328;SDS011;658;48.820;9.354;2023-02-11T01:58:11;5.50;;;5.10;;
1328;SDS011;658;48.820;9.354;2023-02-11T02:02:12;6.33;;;5.83;;
1328;SDS011;658;48.820;9.354;2023-02-11T02:06:29;5.43;;;5.03;;
1328;SDS011;658;48.820;9.354;2023-02-11T02:10:36;5.73;;;5.33;;
1328;SDS011;658;48.820;9.354;2023-02-11T02:14:40;5.90;;;5.40;;
1328;SDS011;658;48.820;9.354;2023-02-11T02:31:23;5.20;;;4.90;;
1328;SDS011;658;48.820;9.354;2023-02-11T02:35:35;5.47;;;5.07;;
1328;SDS011;658;48.820;9.354;2023-02-11T02:39:39;5.80;;;5.40;;
1328;SDS011;658;48.820;9.354;2023-02-11T02:43:49;5.93;;;5.53;;
1328;SDS011;658;48.820;9.354;2023-02-11T02:47:50;5.73;;;5.33;;
1328;SDS011;658;48.820;9.354;2023-02-11T02:56:35;5.47;;;5.07;;
1328;SDS011;658;48.820;9.354;2023-02-11T03:00:40;6.03;;;5.53;;
1328;SDS011;658;48.820;9.354;2023-02-11T03:05:05;5.70;;;5.30;;
1328;SDS011;658;48.820;9.354;2023-02-11T03:09:16;5.27;;;4.87;;
1328;SDS011;658;48.820;9.354;2023-02-11T03:13:29;6.10;;;5.60;;
1328;SDS011;658;48.820;9.354;2023-02-11T03:17:34;6.23;;;5.73;;
1328;SDS011;658;48.820;9.354;2023-02-11T03:21:38;5.70;;;5.30;;
1328;SDS011;658;48.820;9.354;2023-02-11T03:25:43;6.17;;;5.77;;
1328;SDS011;658;48.820;9.354;2023-02-11T03:38:47;5.40;;;4.90;;
1328;SDS011;658;48.820;9.354;2023-02-11T03:42:56;5.60;;;5.10;;
1328;SDS011;658;48.820;9.354;2023-02-11T03:47:00;5.83;;;5.43;;
1328;SDS011;658;48.820;9.354;2023-02-11T03:51:03;5.67;;;5.27;;
1328;SDS011;658;48.820;9.354;2023-02-11T03:55:14;5.40;;;5.00;;
1328;SDS011;658;48.820;9.354;2023-02-11T03:59:17;5.70;;;5.30;;
1328;SDS011;658;48.820;9.354;2023-02-11T04:03:18;5.87;;;5.43;;
1328;SDS011;658;48.820;9.354;2023-02-11T04:07:19;5.63;;;5.23;;
1328;SDS011;658;48.820;9.354;2023-02-11T04:11:20;5.23;;;4.83;;
1328;SDS011;658;48.820;9.354;2023-02-11T04:15:20;5.57;;;5.17;;
1328;SDS011;658;48.820;9.354;2023-02-11T04:19:21;5.93;;;5.43;;
1328;SDS011;658;48.820;9.354;2023-02-11T04:23:21;6.00;;;5.60;;
1328;SDS011;658;48.820;9.354;2023-02-11T04:27:22;4.90;;;4.53;;
1328;SDS011;658;48.820;9.354;2023-02-11T04:31:23;5.27;;;4.87;;
1328;SDS011;658;48.820;9.354;2023-02-11T04:35:23;5.37;;;4.97;;
1328;SDS011;658;48.820;9.354;2023-02-11T04:39:24;5.37;;;4.97;;
1328;SDS011;658;48.820;9.354;2023-02-11T04:43:24;5.27;;;4.87;;
1328;SDS011;658;48.820;9.354;2023-02-11T04:47:25;5.77;;;5.37;;
1328;SDS011;658;48.820;9.354;2023-02-11T04:51:26;6.37;;;5.77;;
1328;SDS011;658;48.820;9.354;2023-02-11T04:55:26;5.67;;;5.17;;
1328;SDS011;658;48.820;9.354;2023-02-11T04:59:27;6.00;;;5.60;;
1328;SDS011;658;48.820;9.354;2023-02-11T05:03:28;5.63;;;5.23;;
1328;SDS011;658;48.820;9.354;2023-02-11T05:07:29;5.20;;;4.80;;
1328;SDS011;658;48.820;9.354;2023-02-11T05:11:29;6.40;;;5.90;;
1328;SDS011;658;48.820;9.354;2023-02-11T05:15:30;5.70;;;5.20;;
1328;SDS011;658;48.820;9.354;2023-02-11T05:19:31;5.27;;;4.87;;
1328;SDS011;658;48.820;9.354;2023-02-11T05:23:31;5.40;;;5.00;;
1328;SDS011;658;48.820;9.354;2023-02-11T05:27:33;5.60;;;5.20;;
1328;SDS011;658;48.820;9.354;2023-02-11T05:31:33;5.17;;;4.77;;
1328;SDS011;658;48.820;9.354;2023-02-11T05:35:34;4.70;;;4.40;;
1328;SDS011;658;48.820;9.354;2023-02-11T05:39:35;5.47;;;5.07;;
1328;SDS011;658;48.820;9.354;2023-02-11T05:43:35;5.30;;;4.90;;
1328;SDS011;658;48.820;9.354;2023-02-11T05:47:36;5.87;;;5.47;;
1328;SDS011;658;48.820;9.354;2023-02-11T05:51:37;5.37;;;5.07;;
1328;SDS011;658;48.820;9.354;2023-02-11T05:55:37;4.90;;;4.60;;
1328;SDS011;658;48.820;9.354;2023-02-11T05:59:38;5.27;;;4.87;;
1328;SDS011;658;48.820;9.354;2023-02-11T06:03:39;5.57;;;5.17;;
1328;SDS011;658;48.820;9.354;2023-02-11T06:07:39;5.70;;;5.20;;
1328;SDS011;658;48.820;9.354;2023-02-11T06:11:40;5.40;;;4.90;;
1328;SDS011;658;48.820;9.354;2023-02-11T06:15:40;5.83;;;5.43;;
1328;SDS011;658;48.820;9.354;2023-02-11T06:19:41;5.03;;;4.63;;
1328;SDS011;658;48.820;9.354;2023-02-11T06:23:41;4.90;;;4.57;;
1328;SDS011;658;48.820;9.354;2023-02-11T06:27:42;5.30;;;4.90;;
1328;SDS011;658;48.820;9.354;2023-02-11T06:31:43;5.20;;;4.80;;
1328;SDS011;658;48.820;9.354;2023-02-11T06:35:43;5.43;;;5.03;;
1328;SDS011;658;48.820;9.354;2023-02-11T06:39:44;5.47;;;4.97;;
1328;SDS011;658;48.820;9.354;2023-02-11T06:43:45;5.07;;;4.77;;
1328;SDS011;658;48.820;9.354;2023-02-11T06:47:45;5.10;;;4.80;;
1328;SDS011;658;48.820;9.354;2023-02-11T06:51:46;4.93;;;4.63;;
1328;SDS011;658;48.820;9.354;2023-02-11T06:55:47;4.80;;;4.50;;
1328;SDS011;658;48.820;9.354;2023-02-11T06:59:47;5.13;;;4.73;;
1328;SDS011;658;48.820;9.354;2023-02-11T07:03:48;5.13;;;4.77;;
1328;SDS011;658;48.820;9.354;2023-02-11T07:07:49;5.10;;;4.70;;
1328;SDS011;658;48.820;9.354;2023-02-11T07:11:50;5.10;;;4.70;;
1328;SDS011;658;48.820;9.354;2023-02-11T07:15:51;5.63;;;5.23;;
1328;SDS011;658;48.820;9.354;2023-02-11T07:19:51;5.53;;;5.13;;
1328;SDS011;658;48.820;9.354;2023-02-11T07:23:52;5.03;;;4.63;;
1328;SDS011;658;48.820;9.354;2023-02-11T07:27:53;5.53;;;5.13;;
1328;SDS011;658;48.820;9.354;2023-02-11T07:31:53;4.73;;;4.43;;
1328;SDS011;658;48.820;9.354;2023-02-11T07:35:54;5.37;;;4.97;;
1328;SDS011;658;48.820;9.354;2023-02-11T07:39:54;4.57;;;4.27;;
1328;SDS011;658;48.820;9.354;2023-02-11T07:43:55;5.67;;;5.27;;
1328;SDS011;658;48.820;9.354;2023-02-11T07:47:56;5.20;;;4.83;;
1328;SDS011;658;48.820;9.354;2023-02-11T07:51:56;5.30;;;4.90;;
1328;SDS011;658;48.820;9.354;2023-02-11T07:55:57;5.70;;;5.30;;
1328;SDS011;658;48.820;9.354;2023-02-11T07:59:57;5.07;;;4.67;;
1328;SDS011;658;48.820;9.354;2023-02-11T08:03:59;4.67;;;4.37;;
1328;SDS011;658;48.820;9.354;2023-02-11T08:08:00;5.83;;;5.27;;
1328;SDS011;658;48.820;9.354;2023-02-11T08:12:01;4.90;;;4.60;;
1328;SDS011;658;48.820;9.354;2023-02-11T08:16:02;4.97;;;4.67;;
1328;SDS011;658;48.820;9.354;2023-02-11T08:20:04;5.23;;;4.83;;
1328;SDS011;658;48.820;9.354;2023-02-11T08:24:05;5.20;;;4.80;;
1328;SDS011;658;48.820;9.354;2023-02-11T08:28:07;5.53;;;5.10;;
1328;SDS011;658;48.820;9.354;2023-02-11T08:32:08;4.93;;;4.53;;
1328;SDS011;658;48.820;9.354;2023-02-11T08:36:16;5.30;;;4.93;;
1328;SDS011;658;48.820;9.354;2023-02-11T08:40:18;5.10;;;4.70;;
1328;SDS011;658;48.820;9.354;2023-02-11T08:44:19;5.40;;;5.00;;
1328;SDS011;658;48.820;9.354;2023-02-11T08:48:20;5.47;;;5.10;;
1328;SDS011;658;48.820;9.354;2023-02-11T08:52:21;5.63;;;5.20;;
1328;SDS011;658;48.820;9.354;2023-02-11T08:56:22;4.83;;;4.50;;
1328;SDS011;658;48.820;9.354;2023-02-11T09:00:23;5.23;;;4.83;;
1328;SDS011;658;48.820;9.354;2023-02-11T09:04:23;4.97;;;4.67;;
1328;SDS011;658;48.820;9.354;2023-02-11T09:08:24;4.73;;;4.43;;
1328;SDS011;658;48.820;9.354;2023-02-11T09:12:24;5.13;;;4.83;;
1328;SDS011;658;48.820;9.354;2023-02-11T09:16:26;6.20;;;5.60;;
1328;SDS011;658;48.820;9.354;2023-02-11T09:20:29;4.87;;;4.47;;
1328;SDS011;658;48.820;9.354;2023-02-11T09:24:30;5.27;;;4.90;;
1328;SDS011;658;48.820;9.354;2023-02-11T09:28:30;5.17;;;4.77;;
1328;SDS011;658;48.820;9.354;2023-02-11T09:32:32;4.73;;;4.43;;
1328;SDS011;658;48.820;9.354;2023-02-11T09:36:34;5.77;;;5.20;;
1328;SDS011;658;48.820;9.354;2023-02-11T09:40:40;5.03;;;4.63;;
1328;SDS011;658;48.820;9.354;2023-02-11T09:44:43;4.83;;;4.53;;
1328;SDS011;658;48.820;9.354;2023-02-11T09:48:46;4.70;;;4.40;;
1328;SDS011;658;48.820;9.354;2023-02-11T09:52:51;5.00;;;4.60;;
1328;SDS011;658;48.820;9.354;2023-02-11T09:56:54;4.80;;;4.50;;
1328;SDS011;658;48.820;9.354;2023-02-11T10:01:29;5.27;;;4.87;;
1328;SDS011;658;48.820;9.354;2023-02-11T10:05:41;5.00;;;4.50;;
1328;SDS011;658;48.820;9.354;2023-02-11T10:23:30;4.73;;;4.33;;
1328;SDS011;658;48.820;9.354;2023-02-11T10:27:34;5.07;;;4.67;;
1328;SDS011;658;48.820;9.354;2023-02-11T10:31:39;4.97;;;4.67;;
1328;SDS011;658;48.820;9.354;2023-02-11T10:35:42;4.40;;;4.10;;
1328;SDS011;658;48.820;9.354;2023-02-11T10:39:43;4.50;;;4.20;;
1328;SDS011;658;48.820;9.354;2023-02-11T10:43:43;4.13;;;3.83;;
1328;SDS011;658;48.820;9.354;2023-02-11T10:47:44;4.63;;;4.33;;
1328;SDS011;658;48.820;9.354;2023-02-11T10:51:44;3.97;;;3.67;;
1328;SDS011;658;48.820;9.354;2023-02-11T10:56:03;4.53;;;4.20;;
1328;SDS011;658;48.820;9.354;2023-02-11T11:00:07;3.93;;;3.63;;
1328;SDS011;658;48.820;9.354;2023-02-11T11:08:50;4.10;;;3.80;;
1328;SDS011;658;48.820;9.354;2023-02-11T11:12:51;4.10;;;3.80;;
1328;SDS011;658;48.820;9.354;2023-02-11T11:16:52;4.30;;;4.00;;
1328;SDS011;658;48.820;9.354;2023-02-11T11:21:00;4.50;;;4.20;;
1328;SDS011;658;48.820;9.354;2023-02-11T11:25:05;3.57;;;3.37;;
1328;SDS011;658;48.820;9.354;2023-02-11T11:29:23;3.50;;;3.30;;
1328;SDS011;658;48.820;9.354;2023-02-11T11:33:32;3.70;;;3.40;;
1328;SDS011;658;48.820;9.354;2023-02-11T11:37:35;3.67;;;3.37;;
1328;SDS011;658;48.820;9.354;2023-02-11T11:41:37;3.83;;;3.57;;
1328;SDS011;658;48.820;9.354;2023-02-11T11:45:54;3.57;;;3.33;;
1328;SDS011;658;48.820;9.354;2023-02-11T11:50:18;3.43;;;3.23;;
1328;SDS011;658;48.820;9.354;2023-02-11T11:54:49;3.70;;;3.50;;
1328;SDS011;658;48.820;9.354;2023-02-11T11:58:54;3.57;;;3.30;;
1328;SDS011;658;48.820;9.354;2023-02-11T12:11:30;3.57;;;3.37;;
1328;SDS011;658;48.820;9.354;2023-02-11T12:15:37;3.00;;;2.80;;
1328;SDS011;658;48.820;9.354;2023-02-11T12:24:36;3.57;;;3.33;;
1328;SDS011;658;48.820;9.354;2023-02-11T12:29:12;3.20;;;3.00;;
1328;SDS011;658;48.820;9.354;2023-02-11T12:42:32;2.93;;;2.73;;
1328;SDS011;658;48.820;9.354;2023-02-11T12:55:25;2.73;;;2.53;;
1328;SDS011;658;48.820;9.354;2023-02-11T13:12:28;3.03;;;2.83;;
1328;SDS011;658;48.820;9.354;2023-02-11T13:16:48;2.60;;;2.40;;
1328;SDS011;658;48.820;9.354;2023-02-11T13:20:52;2.90;;;2.70;;
1328;SDS011;658;48.820;9.354;2023-02-11T13:25:21;2.40;;;2.23;;
1328;SDS011;658;48.820;9.354;2023-02-11T13:30:02;3.00;;;2.80;;
1328;SDS011;658;48.820;9.354;2023-02-11T13:34:24;2.97;;;2.77;;
1328;SDS011;658;48.820;9.354;2023-02-11T13:38:53;2.60;;;2.50;;
1328;SDS011;658;48.820;9.354;2023-02-11T13:43:02;2.77;;;2.60;;
1328;SDS011;658;48.820;9.354;2023-02-11T13:47:04;2.73;;;2.53;;
1328;SDS011;658;48.820;9.354;2023-02-11T13:51:07;2.50;;;2.40;;
1328;SDS011;658;48.820;9.354;2023-02-11T14:03:28;2.73;;;2.53;;
1328;SDS011;658;48.820;9.354;2023-02-11T14:12:30;2.33;;;2.23;;
1328;SDS011;658;48.820;9.354;2023-02-11T14:16:33;2.13;;;2.00;;
1328;SDS011;658;48.820;9.354;2023-02-11T14:20:35;2.20;;;2.10;;
1328;SDS011;658;48.820;9.354;2023-02-11T14:24:51;2.30;;;2.20;;
1328;SDS011;658;48.820;9.354;2023-02-11T14:28:58;1.90;;;1.80;;
1328;SDS011;658;48.820;9.354;2023-02-11T14:37:24;2.27;;;2.17;;
1328;SDS011;658;48.820;9.354;2023-02-11T14:41:47;2.63;;;2.53;;
1328;SDS011;658;48.820;9.354;2023-02-11T14:45:50;2.13;;;2.03;;
1328;SDS011;658;48.820;9.354;2023-02-11T14:49:54;2.20;;;2.10;;
1328;SDS011;658;48.820;9.354;2023-02-11T14:54:00;2.23;;;2.03;;
1328;SDS011;658;48.820;9.354;2023-02-11T14:58:15;1.70;;;1.60;;
1328;SDS011;658;48.820;9.354;2023-02-11T15:02:22;2.20;;;2.10;;
1328;SDS011;658;48.820;9.354;2023-02-11T15:06:31;2.17;;;2.07;;
1328;SDS011;658;48.820;9.354;2023-02-11T15:10:36;1.93;;;1.83;;
1328;SDS011;658;48.820;9.354;2023-02-11T15:14:44;1.77;;;1.67;;
1328;SDS011;658;48.820;9.354;2023-02-11T15:18:49;2.60;;;2.40;;
1328;SDS011;658;48.820;9.354;2023-02-11T15:22:56;1.97;;;1.87;;
1328;SDS011;658;48.820;9.354;2023-02-11T15:31:18;2.20;;;2.10;;
1328;SDS011;658;48.820;9.354;2023-02-11T15:35:22;1.97;;;1.87;;
1328;SDS011;658;48.820;9.354;2023-02-11T15:43:40;2.50;;;2.30;;
1328;SDS011;658;48.820;9.354;2023-02-11T15:47:49;1.93;;;1.83;;
1328;SDS011;658;48.820;9.354;2023-02-11T15:51:53;2.00;;;1.90;;
1328;SDS011;658;48.820;9.354;2023-02-11T15:56:18;1.80;;;1.70;;
1328;SDS011;658;48.820;9.354;2023-02-11T16:00:19;2.23;;;2.13;;
1328;SDS011;658;48.820;9.354;2023-02-11T16:04:23;1.97;;;1.87;;
1328;SDS011;658;48.820;9.354;2023-02-11T16:08:26;2.00;;;1.90;;
1328;SDS011;658;48.820;9.354;2023-02-11T16:12:28;2.00;;;1.90;;
1328;SDS011;658;48.820;9.354;2023-02-11T16:16:30;2.40;;;2.20;;
1328;SDS011;658;48.820;9.354;2023-02-11T16:20:32;1.90;;;1.80;;
1328;SDS011;658;48.820;9.354;2023-02-11T16:24:34;2.00;;;1.90;;
1328;SDS011;658;48.820;9.354;2023-02-11T16:28:36;1.90;;;1.80;;
1328;SDS011;658;48.820;9.354;2023-02-11T16:32:36;1.87;;;1.77;;
1328;SDS011;658;48.820;9.354;2023-02-11T16:36:37;1.97;;;1.87;;
1328;SDS011;658;48.820;9.354;2023-02-11T16:40:38;2.13;;;2.03;;
1328;SDS011;658;48.820;9.354;2023-02-11T16:44:38;2.60;;;2.40;;
1328;SDS011;658;48.820;9.354;2023-02-11T16:48:39;2.80;;;2.33;;
1328;SDS011;658;48.820;9.354;2023-02-11T16:52:40;2.20;;;2.10;;
1328;SDS011;658;48.820;9.354;2023-02-11T16:56:42;1.83;;;1.73;;
1328;SDS011;658;48.820;9.354;2023-02-11T17:00:43;2.40;;;2.30;;
1328;SDS011;658;48.820;9.354;2023-02-11T17:04:46;2.33;;;2.20;;
1328;SDS011;658;48.820;9.354;2023-02-11T17:08:47;2.37;;;2.17;;
1328;SDS011;658;48.820;9.354;2023-02-11T17:12:48;2.20;;;2.10;;
1328;SDS011;658;48.820;9.354;2023-02-11T17:16:50;2.10;;;2.00;;
1328;SDS011;658;48.820;9.354;2023-02-11T17:20:50;2.43;;;2.33;;
1328;SDS011;658;48.820;9.354;2023-02-11T17:24:51;2.00;;;1.90;;
1328;SDS011;658;48.820;9.354;2023-02-11T17:28:54;2.13;;;2.03;;
1328;SDS011;658;48.820;9.354;2023-02-11T17:32:55;2.50;;;2.40;;
1328;SDS011;658;48.820;9.354;2023-02-11T17:36:56;2.70;;;2.50;;
1328;SDS011;658;48.820;9.354;2023-02-11T17:40:59;2.80;;;2.60;;
1328;SDS011;658;48.820;9.354;2023-02-11T17:45:00;2.10;;;2.00;;
1328;SDS011;658;48.820;9.354;2023-02-11T17:49:01;2.83;;;2.47;;
1328;SDS011;658;48.820;9.354;2023-02-11T17:53:02;2.30;;;2.20;;
1328;SDS011;658;48.820;9.354;2023-02-11T17:57:03;2.27;;;2.17;;
1328;SDS011;658;48.820;9.354;2023-02-11T18:01:03;2.63;;;2.43;;
1328;SDS011;658;48.820;9.354;2023-02-11T18:05:04;2.33;;;2.20;;
1328;SDS011;658;48.820;9.354;2023-02-11T18:09:05;2.40;;;2.30;;
1328;SDS011;658;48.820;9.354;2023-02-11T18:13:06;2.30;;;2.20;;
1328;SDS011;658;48.820;9.354;2023-02-11T18:17:07;2.43;;;2.30;;
1328;SDS011;658;48.820;9.354;2023-02-11T18:21:10;2.73;;;2.53;;
1328;SDS011;658;48.820;9.354;2023-02-11T18:25:17;2.10;;;2.00;;
1328;SDS011;658;48.820;9.354;2023-02-11T18:29:18;2.77;;;2.57;;
1328;SDS011;658;48.820;9.354;2023-02-11T18:33:19;2.40;;;2.20;;
1328;SDS011;658;48.820;9.354;2023-02-11T18:37:19;2.27;;;2.10;;
1328;SDS011;658;48.820;9.354;2023-02-11T18:41:20;2.40;;;2.30;;
1328;SDS011;658;48.820;9.354;2023-02-11T18:45:21;2.53;;;2.40;;
1328;SDS011;658;48.820;9.354;2023-02-11T18:49:22;3.07;;;2.87;;
1328;SDS011;658;48.820;9.354;2023-02-11T18:53:23;2.60;;;2.47;;
1328;SDS011;658;48.820;9.354;2023-02-11T18:57:24;2.60;;;2.40;;
1328;SDS011;658;48.820;9.354;2023-02-11T19:01:25;2.83;;;2.63;;
1328;SDS011;658;48.820;9.354;2023-02-11T19:05:26;2.40;;;2.30;;
1328;SDS011;658;48.820;9.354;2023-02-11T19:09:32;2.50;;;2.40;;
1328;SDS011;658;48.820;9.354;2023-02-11T19:13:32;2.53;;;2.43;;
1328;SDS011;658;48.820;9.354;2023-02-11T19:17:33;3.17;;;2.97;;
1328;SDS011;658;48.820;9.354;2023-02-11T19:21:34;2.80;;;2.60;;
1328;SDS011;658;48.820;9.354;2023-02-11T19:25:35;2.77;;;2.67;;
1328;SDS011;658;48.820;9.354;2023-02-11T19:29:36;2.67;;;2.47;;
1328;SDS011;658;48.820;9.354;2023-02-11T19:33:37;3.00;;;2.80;;
1328;SDS011;658;48.820;9.354;2023-02-11T19:37:38;2.87;;;2.67;;
1328;SDS011;658;48.820;9.354;2023-02-11T19:41:38;3.00;;;2.80;;
1328;SDS011;658;48.820;9.354;2023-02-11T19:45:39;3.63;;;3.37;;
1328;SDS011;658;48.820;9.354;2023-02-11T19:49:40;3.00;;;2.80;;
1328;SDS011;658;48.820;9.354;2023-02-11T19:53:41;3.50;;;3.30;;
1328;SDS011;658;48.820;9.354;2023-02-11T19:57:42;3.40;;;3.20;;
1328;SDS011;658;48.820;9.354;2023-02-11T20:01:43;3.30;;;3.07;;
1328;SDS011;658;48.820;9.354;2023-02-11T20:05:46;3.50;;;3.20;;
1328;SDS011;658;48.820;9.354;2023-02-11T20:09:47;3.10;;;2.90;;
1328;SDS011;658;48.820;9.354;2023-02-11T20:13:47;3.30;;;3.00;;
1328;SDS011;658;48.820;9.354;2023-02-11T20:17:48;3.07;;;2.87;;
1328;SDS011;658;48.820;9.354;2023-02-11T20:21:51;3.40;;;3.20;;
1328;SDS011;658;48.820;9.354;2023-02-11T20:25:54;3.40;;;3.10;;
1328;SDS011;658;48.820;9.354;2023-02-11T20:29:55;3.57;;;3.27;;
1328;SDS011;658;48.820;9.354;2023-02-11T20:33:55;3.73;;;3.43;;
1328;SDS011;658;48.820;9.354;2023-02-11T20:37:56;3.80;;;3.60;;
1328;SDS011;658;48.820;9.354;2023-02-11T20:41:57;3.63;;;3.33;;
1328;SDS011;658;48.820;9.354;2023-02-11T20:46:02;3.50;;;3.30;;
1328;SDS011;658;48.820;9.354;2023-02-11T20:50:03;3.10;;;2.90;;
1328;SDS011;658;48.820;9.354;2023-02-11T20:54:04;3.43;;;3.13;;
1328;SDS011;658;48.820;9.354;2023-02-11T20:58:06;3.40;;;3.20;;
1328;SDS011;658;48.820;9.354;2023-02-11T21:02:08;3.67;;;3.47;;
1328;SDS011;658;48.820;9.354;2023-02-11T21:06:09;3.70;;;3.40;;
1328;SDS011;658;48.820;9.354;2023-02-11T21:10:10;3.83;;;3.53;;
1328;SDS011;658;48.820;9.354;2023-02-11T21:14:13;3.40;;;3.20;;
1328;SDS011;658;48.820;9.354;2023-02-11T21:18:14;3.53;;;3.23;;
1328;SDS011;658;48.820;9.354;2023-02-11T21:22:15;4.03;;;3.80;;
1328;SDS011;658;48.820;9.354;2023-02-11T21:26:15;3.20;;;3.00;;
1328;SDS011;658;48.820;9.354;2023-02-11T21:30:16;4.10;;;3.70;;
1328;SDS011;658;48.820;9.354;2023-02-11T21:34:17;3.63;;;3.33;;
1328;SDS011;658;48.820;9.354;2023-02-11T21:38:19;3.73;;;3.53;;
1328;SDS011;658;48.820;9.354;2023-02-11T21:42:21;3.33;;;3.13;;
1328;SDS011;658;48.820;9.354;2023-02-11T21:46:21;3.50;;;3.30;;
1328;SDS011;658;48.820;9.354;2023-02-11T21:50:22;3.70;;;3.40;;
1328;SDS011;658;48.820;9.354;2023-02-11T21:54:23;3.37;;;3.17;;
1328;SDS011;658;48.820;9.354;2023-02-11T21:58:28;3.57;;;3.37;;
1328;SDS011;658;48.820;9.354;2023-02-11T22:02:28;3.90;;;3.60;;
1328;SDS011;658;48.820;9.354;2023-02-11T22:06:30;4.03;;;3.73;;
1328;SDS011;658;48.820;9.354;2023-02-11T22:10:32;3.53;;;3.33;;
1328;SDS011;658;48.820;9.354;2023-02-11T22:14:36;3.70;;;3.40;;
1328;SDS011;658;48.820;9.354;2023-02-11T22:18:37;4.03;;;3.73;;
1328;SDS011;658;48.820;9.354;2023-02-11T22:22:38;4.77;;;4.30;;
1328;SDS011;658;48.820;9.354;2023-02-11T22:26:39;4.27;;;3.97;;
1328;SDS011;658;48.820;9.354;2023-02-11T22:30:40;4.20;;;3.80;;
1328;SDS011;658;48.820;9.354;2023-02-11T22:34:40;3.90;;;3.60;;
1328;SDS011;658;48.820;9.354;2023-02-11T22:38:41;4.13;;;3.87;;
1328;SDS011;658;48.820;9.354;2023-02-11T22:42:42;3.70;;;3.50;;
1328;SDS011;658;48.820;9.354;2023-02-11T22:46:42;3.87;;;3.57;;
1328;SDS011;658;48.820;9.354;2023-02-11T22:50:43;4.70;;;4.30;;
1328;SDS011;658;48.820;9.354;2023-02-11T22:54:44;3.97;;;3.67;;
1328;SDS011;658;48.820;9.354;2023-02-11T22:58:44;4.23;;;3.87;;
1328;SDS011;658;48.820;9.354;2023-02-11T23:02:46;3.77;;;3.47;;
1328;SDS011;658;48.820;9.354;2023-02-11T23:06:46;4.20;;;3.90;;
1328;SDS011;658;48.820;9.354;2023-02-11T23:10:48;4.13;;;3.83;;
1328;SDS011;658;48.820;9.354;2023-02-11T23:14:49;4.00;;;3.73;;
1328;SDS011;658;48.820;9.354;2023-02-11T23:18:50;4.13;;;3.83;;
1328;SDS011;658;48.820;9.354;2023-02-11T23:22:51;3.90;;;3.60;;
1328;SDS011;658;48.820;9.354;2023-02-11T23:26:52;4.20;;;3.90;;
1328;SDS011;658;48.820;9.354;2023-02-11T23:30:53;3.60;;;3.30;;
1328;SDS011;658;48.820;9.354;2023-02-11T23:34:54;3.60;;;3.30;;
1328;SDS011;658;48.820;9.354;2023-02-11T23:38:54;4.43;;;4.10;;
1328;SDS011;658;48.820;9.354;2023-02-11T23:42:55;4.60;;;4.20;;
1328;SDS011;658;48.820;9.354;2023-02-11T23:46:56;4.10;;;3.80;;
1328;SDS011;658;48.820;9.354;2023-02-11T23:50:56;4.00;;;3.70;;
1328;SDS011;658;48.820;9.354;2023-02-11T23:54:57;3.80;;;3.57;;
1328;SDS011;658;48.820;9.354;2023-02-11T23:58:57;4.37;;;4.07;;
